createdAt,value
2023-02-13T00:01:53.084Z,26.30
2023-02-13T00:04:19.876Z,27.67
2023-02-13T00:06:47.861Z,25.77
2023-02-13T00:09:15.028Z,25.53
2023-02-13T00:11:41.836Z,24.83
2023-02-13T00:14:08.392Z,26.10
2023-02-13T00:16:34.864Z,28.13
2023-02-13T00:19:01.392Z,26.02
2023-02-13T00:21:28.030Z,30.47
2023-02-13T00:23:54.505Z,25.92
2023-02-13T00:26:21.035Z,26.42
2023-02-13T00:28:48.524Z,25.33
2023-02-13T00:31:17.953Z,23.35
2023-02-13T00:33:44.706Z,26.30
2023-02-13T00:36:14.816Z,26.30
2023-02-13T00:38:42.156Z,25.50
2023-02-13T00:41:09.327Z,22.20
2023-02-13T00:43:36.581Z,26.92
2023-02-13T00:46:03.458Z,28.47
2023-02-13T00:48:31.510Z,26.88
2023-02-13T00:50:58.407Z,28.88
2023-02-13T00:53:26.588Z,24.13
2023-02-13T00:55:53.367Z,24.83
2023-02-13T00:58:20.230Z,26.33
2023-02-13T01:00:47.326Z,27.65
2023-02-13T01:03:15.048Z,25.95
2023-02-13T01:05:41.806Z,27.15
2023-02-13T01:08:08.865Z,28.20
2023-02-13T01:10:37.686Z,25.30
2023-02-13T01:13:04.844Z,28.65
2023-02-13T01:15:32.969Z,24.65
2023-02-13T01:18:00.898Z,22.40
2023-02-13T01:20:29.350Z,25.67
2023-02-13T01:22:57.201Z,21.77
2023-02-13T01:25:24.042Z,26.35
2023-02-13T01:27:50.941Z,23.25
2023-02-13T01:30:18.802Z,23.52
2023-02-13T01:32:46.866Z,25.67
2023-02-13T01:35:14.208Z,26.13
2023-02-13T01:37:41.087Z,24.40
2023-02-13T01:40:10.508Z,24.63
2023-02-13T01:42:37.327Z,27.85
2023-02-13T01:45:25.718Z,24.98
2023-02-13T01:47:54.268Z,25.83
2023-02-13T01:50:39.632Z,27.02
2023-02-13T01:53:18.557Z,24.83
2023-02-13T01:55:50.363Z,24.30
2023-02-13T01:58:20.920Z,22.50
2023-02-13T02:00:49.811Z,24.23
2023-02-13T02:03:21.563Z,27.25
2023-02-13T02:05:51.583Z,25.08
2023-02-13T02:08:19.518Z,25.27
2023-02-13T02:10:52.599Z,25.23
2023-02-13T02:13:21.127Z,26.77
2023-02-13T02:15:49.986Z,28.48
2023-02-13T02:18:19.199Z,25.75
2023-02-13T02:21:08.344Z,26.58
2023-02-13T02:23:47.082Z,25.25
2023-02-13T02:26:48.656Z,27.43
2023-02-13T02:29:49.766Z,25.15
2023-02-13T02:32:35.530Z,26.02
2023-02-13T02:35:21.796Z,28.23
2023-02-13T02:38:24.643Z,24.42
2023-02-13T02:41:34.920Z,26.73
2023-02-13T02:44:20.219Z,26.45
2023-02-13T02:47:19.824Z,26.38
2023-02-13T02:50:02.139Z,26.27
2023-02-13T02:52:45.746Z,25.45
2023-02-13T02:55:36.185Z,22.13
2023-02-13T02:58:31.017Z,28.58
2023-02-13T03:01:19.803Z,25.40
2023-02-13T03:04:06.178Z,26.23
2023-02-13T03:06:44.325Z,27.85
2023-02-13T03:09:34.064Z,27.63
2023-02-13T03:12:19.665Z,26.10
2023-02-13T03:14:46.190Z,30.33
2023-02-13T03:17:34.199Z,29.67
2023-02-13T03:20:19.215Z,27.92
2023-02-13T03:23:15.750Z,23.40
2023-02-13T03:26:00.585Z,26.30
2023-02-13T03:29:11.139Z,26.23
2023-02-13T03:32:01.434Z,26.15
2023-02-13T03:34:53.500Z,27.88
2023-02-13T03:37:46.855Z,28.10
2023-02-13T03:40:18.000Z,25.88
2023-02-13T03:42:52.916Z,24.67
2023-02-13T03:45:42.096Z,26.90
2023-02-13T03:48:30.244Z,25.58
2023-02-13T03:50:59.223Z,26.80
2023-02-13T03:53:28.981Z,28.80
2023-02-13T03:56:16.043Z,24.13
2023-02-13T03:59:07.046Z,26.50
2023-02-13T04:01:36.627Z,29.08
2023-02-13T04:04:13.538Z,29.07
2023-02-13T04:06:50.654Z,27.60
2023-02-13T04:09:17.351Z,26.98
2023-02-13T04:11:56.420Z,26.48
2023-02-13T04:14:27.752Z,31.23
2023-02-13T04:17:03.899Z,26.30
2023-02-13T04:19:32.284Z,26.05
2023-02-13T04:22:01.214Z,28.98
2023-02-13T04:24:28.254Z,31.45
2023-02-13T04:26:56.181Z,30.67
2023-02-13T04:29:24.068Z,29.40
2023-02-13T04:31:50.788Z,28.17
2023-02-13T04:34:18.041Z,22.98
2023-02-13T04:36:44.592Z,28.88
2023-02-13T04:39:11.359Z,27.05
2023-02-13T04:41:37.820Z,27.60
2023-02-13T04:44:04.532Z,32.08
2023-02-13T04:46:31.043Z,31.08
2023-02-13T04:48:57.614Z,30.13
2023-02-13T04:51:24.145Z,31.88
2023-02-13T04:53:50.619Z,30.87
2023-02-13T04:56:18.961Z,26.75
2023-02-13T04:58:46.263Z,30.70
2023-02-13T05:01:17.142Z,26.77
2023-02-13T05:03:43.789Z,32.42
2023-02-13T05:06:10.355Z,31.13
2023-02-13T05:08:36.871Z,28.38
2023-02-13T05:11:03.473Z,30.38
2023-02-13T05:13:30.065Z,33.47
2023-02-13T05:15:56.668Z,27.30
2023-02-13T05:18:23.144Z,30.23
2023-02-13T05:21:09.804Z,28.25
2023-02-13T05:23:36.494Z,35.00
2023-02-13T05:26:03.339Z,27.88
2023-02-13T05:28:48.375Z,26.08
2023-02-13T05:31:14.990Z,29.53
2023-02-13T05:33:41.552Z,30.02
2023-02-13T05:36:08.201Z,26.50
2023-02-13T05:38:34.664Z,31.00
2023-02-13T05:41:01.301Z,27.83
2023-02-13T05:43:28.984Z,29.10
2023-02-13T05:46:21.919Z,34.25
2023-02-13T05:48:48.660Z,29.30
2023-02-13T05:51:15.198Z,32.00
2023-02-13T05:53:41.710Z,31.60
2023-02-13T05:56:08.278Z,30.07
2023-02-13T05:58:35.397Z,35.13
2023-02-13T06:01:01.943Z,34.65
2023-02-13T06:03:30.495Z,31.80
2023-02-13T06:05:57.786Z,32.50
2023-02-13T06:08:24.542Z,30.60
2023-02-13T06:10:51.632Z,32.17
2023-02-13T06:13:18.894Z,25.17
2023-02-13T06:15:46.060Z,27.50
2023-02-13T06:18:12.577Z,31.17
2023-02-13T06:20:39.430Z,32.33
2023-02-13T06:23:05.937Z,27.83
2023-02-13T06:25:34.730Z,31.23
2023-02-13T06:28:01.283Z,27.08
2023-02-13T06:30:27.817Z,30.50
2023-02-13T06:32:54.340Z,33.13
2023-02-13T06:35:20.896Z,31.15
2023-02-13T06:37:48.655Z,28.40
2023-02-13T06:40:16.238Z,25.50
2023-02-13T06:42:43.782Z,34.38
2023-02-13T06:45:11.112Z,29.80
2023-02-13T06:47:41.889Z,26.52
2023-02-13T06:50:08.737Z,27.63
2023-02-13T06:52:35.988Z,31.80
2023-02-13T06:55:02.555Z,28.00
2023-02-13T06:57:32.993Z,31.47
2023-02-13T07:00:00.727Z,31.50
2023-02-13T07:02:27.352Z,34.08
2023-02-13T07:04:53.925Z,32.08
2023-02-13T07:07:20.680Z,32.88
2023-02-13T07:09:47.124Z,32.33
2023-02-13T07:12:13.653Z,31.63
2023-02-13T07:14:40.575Z,34.47
2023-02-13T07:17:07.092Z,33.95
2023-02-13T07:19:33.560Z,34.85
2023-02-13T07:22:00.049Z,36.17
2023-02-13T07:24:26.603Z,38.13
2023-02-13T07:26:53.124Z,30.60
2023-02-13T07:29:19.628Z,36.63
2023-02-13T07:31:46.177Z,31.98
2023-02-13T07:34:12.687Z,37.07
2023-02-13T07:36:39.150Z,37.70
2023-02-13T07:39:05.659Z,32.35
2023-02-13T07:41:32.176Z,31.60
2023-02-13T07:43:58.694Z,35.40
2023-02-13T07:46:25.276Z,35.90
2023-02-13T07:48:52.863Z,34.35
2023-02-13T07:51:19.466Z,33.08
2023-02-13T07:53:46.170Z,35.08
2023-02-13T07:56:13.217Z,38.50
2023-02-13T07:58:44.557Z,37.17
2023-02-13T08:01:14.763Z,35.33
2023-02-13T08:03:41.684Z,36.53
2023-02-13T08:06:08.823Z,35.03
2023-02-13T08:08:35.811Z,34.38
2023-02-13T08:11:38.701Z,36.97
2023-02-13T08:14:05.234Z,31.25
2023-02-13T08:16:31.763Z,35.25
2023-02-13T08:18:58.509Z,35.33
2023-02-13T08:21:25.018Z,32.60
2023-02-13T08:23:52.047Z,39.80
2023-02-13T08:26:18.597Z,34.90
2023-02-13T08:28:45.328Z,42.30
2023-02-13T08:31:12.964Z,37.85
2023-02-13T08:33:41.369Z,35.08
2023-02-13T08:36:08.354Z,35.73
2023-02-13T08:38:35.028Z,36.00
2023-02-13T08:41:01.530Z,38.33
2023-02-13T08:43:28.098Z,34.85
2023-02-13T08:45:58.099Z,36.60
2023-02-13T08:48:25.547Z,35.27
2023-02-13T08:50:52.183Z,40.40
2023-02-13T08:53:18.853Z,46.33
2023-02-13T08:55:55.414Z,41.75
2023-02-13T08:58:22.315Z,45.58
2023-02-13T09:00:48.912Z,44.27
2023-02-13T09:03:16.029Z,40.83
2023-02-13T09:05:42.630Z,39.78
2023-02-13T09:08:11.606Z,37.28
2023-02-13T09:10:39.183Z,41.25
2023-02-13T09:13:06.193Z,46.60
2023-02-13T09:15:33.340Z,42.42
2023-02-13T09:17:59.854Z,39.88
2023-02-13T09:20:26.651Z,38.30
2023-02-13T09:22:55.011Z,41.60
2023-02-13T09:25:21.661Z,40.73
2023-02-13T09:27:48.229Z,42.92
2023-02-13T09:30:23.001Z,42.38
2023-02-13T09:32:53.713Z,42.72
2023-02-13T09:35:21.338Z,42.67
2023-02-13T09:37:47.874Z,43.10
2023-02-13T09:40:35.377Z,41.00
2023-02-13T09:43:08.370Z,37.67
2023-02-13T09:45:35.849Z,36.83
2023-02-13T09:48:03.624Z,36.95
2023-02-13T09:50:31.751Z,36.73
2023-02-13T09:52:59.768Z,37.95
2023-02-13T09:55:37.524Z,36.88
2023-02-13T09:58:20.617Z,38.75
2023-02-13T10:00:53.658Z,37.17
2023-02-13T10:03:31.415Z,34.47
2023-02-13T10:05:58.416Z,37.60
2023-02-13T10:08:40.297Z,37.08
2023-02-13T10:11:29.461Z,36.28
2023-02-13T10:14:19.516Z,34.83
2023-02-13T10:17:14.384Z,39.10
2023-02-13T10:19:47.093Z,39.10
2023-02-13T10:22:32.415Z,40.67
2023-02-13T10:25:16.102Z,36.47
2023-02-13T10:27:49.671Z,37.13
2023-02-13T10:30:23.431Z,35.73
2023-02-13T10:33:11.133Z,33.13
2023-02-13T10:35:38.573Z,36.63
2023-02-13T10:38:14.597Z,42.75
2023-02-13T10:40:51.022Z,35.58
2023-02-13T10:43:20.498Z,36.57
2023-02-13T10:45:55.710Z,39.30
2023-02-13T10:48:36.103Z,35.55
2023-02-13T10:51:13.190Z,35.97
2023-02-13T10:54:22.032Z,34.30
2023-02-13T10:57:12.245Z,34.33
2023-02-13T10:59:55.206Z,34.75
2023-02-13T11:02:27.751Z,36.35
2023-02-13T11:05:07.766Z,31.20
2023-02-13T11:07:35.131Z,35.58
2023-02-13T11:10:09.018Z,37.43
2023-02-13T11:12:35.665Z,36.38
2023-02-13T11:15:05.494Z,36.55
2023-02-13T11:17:36.826Z,36.80
2023-02-13T11:20:08.296Z,36.50
2023-02-13T11:22:38.050Z,70.97
2023-02-13T11:25:19.015Z,43.42
2023-02-13T11:27:47.740Z,32.90
2023-02-13T11:30:23.418Z,29.98
2023-02-13T11:33:02.856Z,31.52
2023-02-13T11:35:36.201Z,29.70
2023-02-13T11:38:23.923Z,29.58
2023-02-13T11:41:12.477Z,28.38
2023-02-13T11:44:00.981Z,30.60
2023-02-13T11:46:45.481Z,30.20
2023-02-13T11:49:32.831Z,29.60
2023-02-13T11:52:01.555Z,29.05
2023-02-13T11:54:30.353Z,24.52
2023-02-13T11:57:18.772Z,28.27
2023-02-13T11:59:47.977Z,28.48
2023-02-13T12:02:45.996Z,27.70
2023-02-13T12:05:17.939Z,29.50
2023-02-13T12:07:46.408Z,30.90
2023-02-13T12:10:17.396Z,26.92
2023-02-13T12:12:54.605Z,34.30
2023-02-13T12:15:30.592Z,28.23
2023-02-13T12:18:06.056Z,33.35
2023-02-13T12:20:53.895Z,28.95
2023-02-13T12:24:04.932Z,29.75
2023-02-13T12:26:40.575Z,31.27
2023-02-13T12:29:41.683Z,31.83
2023-02-13T12:32:25.838Z,30.63
2023-02-13T12:35:23.550Z,30.40
2023-02-13T12:37:52.963Z,30.38
2023-02-13T12:40:44.189Z,29.02
2023-02-13T12:43:31.864Z,30.03
2023-02-13T12:46:11.989Z,31.42
2023-02-13T12:49:11.816Z,30.15
2023-02-13T12:51:45.298Z,29.15
2023-02-13T12:54:28.696Z,28.92
2023-02-13T12:57:05.312Z,28.03
2023-02-13T12:59:47.087Z,29.92
2023-02-13T13:02:19.473Z,31.33
2023-02-13T13:05:13.630Z,29.10
2023-02-13T13:07:58.959Z,30.25
2023-02-13T13:10:37.776Z,30.43
2023-02-13T13:13:41.958Z,31.42
2023-02-13T13:16:20.700Z,31.92
2023-02-13T13:18:59.862Z,30.67
2023-02-13T13:21:33.996Z,31.00
2023-02-13T13:24:22.603Z,30.73
2023-02-13T13:26:51.985Z,29.77
2023-02-13T13:29:26.295Z,31.13
2023-02-13T13:32:00.030Z,31.52
2023-02-13T13:34:27.732Z,30.17
2023-02-13T13:37:11.681Z,33.57
2023-02-13T13:40:18.975Z,33.30
2023-02-13T13:42:54.262Z,33.47
2023-02-13T13:45:33.699Z,33.50
2023-02-13T13:48:21.157Z,29.98
2023-02-13T13:50:48.951Z,32.83
2023-02-13T13:53:20.934Z,33.47
2023-02-13T13:55:50.246Z,35.00
2023-02-13T13:58:42.795Z,33.33
2023-02-13T14:01:23.567Z,33.03
2023-02-13T14:03:56.221Z,34.20
2023-02-13T14:06:28.562Z,33.08
2023-02-13T14:09:06.145Z,33.15
2023-02-13T14:11:46.984Z,32.22
2023-02-13T14:14:29.025Z,33.42
2023-02-13T14:17:01.961Z,34.17
2023-02-13T14:19:39.754Z,37.55
2023-02-13T14:22:37.956Z,35.70
2023-02-13T14:25:07.566Z,34.55
2023-02-13T14:27:39.228Z,36.15
2023-02-13T14:30:26.847Z,34.13
2023-02-13T14:32:54.294Z,31.90
2023-02-13T14:35:27.831Z,33.47
2023-02-13T14:37:59.041Z,32.50
2023-02-13T14:40:28.958Z,35.80
2023-02-13T14:43:35.786Z,32.63
2023-02-13T14:46:08.341Z,35.28
2023-02-13T14:48:51.114Z,36.50
2023-02-13T14:51:28.805Z,33.85
2023-02-13T14:54:00.750Z,32.38
2023-02-13T14:56:28.211Z,32.33
2023-02-13T14:59:01.314Z,35.08
2023-02-13T15:01:34.434Z,31.63
2023-02-13T15:04:10.994Z,30.98
2023-02-13T15:06:41.749Z,31.83
2023-02-13T15:09:24.006Z,33.70
2023-02-13T15:11:50.927Z,32.50
2023-02-13T15:14:37.182Z,34.10
2023-02-13T15:17:11.690Z,33.47
2023-02-13T15:19:43.570Z,36.25
2023-02-13T15:22:19.703Z,34.77
2023-02-13T15:24:48.387Z,30.38
2023-02-13T15:27:44.063Z,32.50
2023-02-13T15:30:23.978Z,32.80
2023-02-13T15:33:02.489Z,32.08
2023-02-13T15:35:34.881Z,32.80
2023-02-13T15:38:18.370Z,36.70
2023-02-13T15:40:44.988Z,32.78
2023-02-13T15:43:23.584Z,32.97
2023-02-13T15:45:50.295Z,34.22
2023-02-13T15:48:17.565Z,36.10
2023-02-13T15:50:44.350Z,35.75
2023-02-13T15:53:16.315Z,39.15
2023-02-13T15:55:55.007Z,38.03
2023-02-13T15:58:25.662Z,39.40
2023-02-13T16:00:52.231Z,37.77
2023-02-13T16:03:19.520Z,38.20
2023-02-13T16:05:46.924Z,41.50
2023-02-13T16:08:35.331Z,41.42
2023-02-13T16:11:16.906Z,38.85
2023-02-13T16:14:03.950Z,40.97
2023-02-13T16:16:53.362Z,65.93
2023-02-13T16:20:07.849Z,45.53
2023-02-13T16:22:43.269Z,42.40
2023-02-13T16:25:12.702Z,40.00
2023-02-13T16:28:04.125Z,46.63
2023-02-13T16:30:37.212Z,46.67
2023-02-13T16:33:12.707Z,47.85
2023-02-13T16:35:42.682Z,50.17
2023-02-13T16:38:33.871Z,48.47
2023-02-13T16:41:02.276Z,42.93
2023-02-13T16:43:48.156Z,40.45
2023-02-13T16:46:29.425Z,40.25
2023-02-13T16:49:01.991Z,40.78
2023-02-13T16:51:37.954Z,42.58
2023-02-13T16:54:33.484Z,38.83
2023-02-13T16:57:18.848Z,41.70
2023-02-13T16:59:48.252Z,39.67
2023-02-13T17:02:23.997Z,39.72
2023-02-13T17:05:09.870Z,40.47
2023-02-13T17:07:39.123Z,40.63
2023-02-13T17:10:36.070Z,42.60
2023-02-13T17:13:17.638Z,37.22
2023-02-13T17:15:46.893Z,40.20
2023-02-13T17:18:13.989Z,36.05
2023-02-13T17:20:42.346Z,40.43
2023-02-13T17:23:17.234Z,38.80
2023-02-13T17:25:51.325Z,38.92
2023-02-13T17:28:29.174Z,39.75
2023-02-13T17:30:57.903Z,45.38
2023-02-13T17:33:26.940Z,42.60
2023-02-13T17:35:54.167Z,40.67
2023-02-13T17:38:20.833Z,42.65
2023-02-13T17:40:47.829Z,39.83
2023-02-13T17:43:17.424Z,45.58
2023-02-13T17:45:45.256Z,43.23
2023-02-13T17:48:11.757Z,45.38
2023-02-13T17:50:38.431Z,44.90
2023-02-13T17:53:07.770Z,44.33
2023-02-13T17:55:35.361Z,42.38
2023-02-13T17:58:02.154Z,43.57
2023-02-13T18:00:31.323Z,48.25
2023-02-13T18:02:59.983Z,41.03
2023-02-13T18:05:27.849Z,46.95
2023-02-13T18:07:54.991Z,47.85
2023-02-13T18:10:26.752Z,51.57
2023-02-13T18:12:55.437Z,48.10
2023-02-13T18:15:21.930Z,46.40
2023-02-13T18:17:48.562Z,46.28
2023-02-13T18:20:18.453Z,47.33
2023-02-13T18:22:45.049Z,45.70
2023-02-13T18:25:12.528Z,44.90
2023-02-13T18:27:39.499Z,46.70
2023-02-13T18:30:06.641Z,46.53
2023-02-13T18:32:33.362Z,44.92
2023-02-13T18:35:00.911Z,48.27
2023-02-13T18:37:29.432Z,43.90
2023-02-13T18:39:56.904Z,43.97
2023-02-13T18:42:23.389Z,45.58
2023-02-13T18:44:50.024Z,45.72
2023-02-13T18:47:17.392Z,46.17
2023-02-13T18:49:46.354Z,43.58
2023-02-13T18:52:12.917Z,43.50
2023-02-13T18:54:39.547Z,41.42
2023-02-13T18:57:06.593Z,45.03
2023-02-13T18:59:33.178Z,45.13
2023-02-13T19:01:59.704Z,41.90
2023-02-13T19:04:26.211Z,42.38
2023-02-13T19:06:53.015Z,46.08
2023-02-13T19:09:19.558Z,43.28
2023-02-13T19:11:48.520Z,46.87
2023-02-13T19:14:20.150Z,41.28
2023-02-13T19:16:46.690Z,41.60
2023-02-13T19:19:13.271Z,39.28
2023-02-13T19:21:39.882Z,41.47
2023-02-13T19:24:08.803Z,42.63
2023-02-13T19:26:36.266Z,43.33
2023-02-13T19:29:03.450Z,42.65
2023-02-13T19:31:31.464Z,42.78
2023-02-13T19:34:00.343Z,46.75
2023-02-13T19:36:28.646Z,44.60
2023-02-13T19:38:57.006Z,43.72
2023-02-13T19:41:23.907Z,42.75
2023-02-13T19:43:56.443Z,39.10
2023-02-13T19:46:28.914Z,43.28
2023-02-13T19:48:56.114Z,42.93
2023-02-13T19:51:28.177Z,42.58
2023-02-13T19:53:58.974Z,40.30
2023-02-13T19:56:27.192Z,43.22
2023-02-13T19:58:54.070Z,45.00
2023-02-13T20:01:23.016Z,46.43
2023-02-13T20:03:49.623Z,44.88
2023-02-13T20:06:30.033Z,41.50
2023-02-13T20:08:58.561Z,43.88
2023-02-13T20:11:25.513Z,45.17
2023-02-13T20:13:56.565Z,40.53
2023-02-13T20:16:23.683Z,39.83
2023-02-13T20:18:50.190Z,40.75
2023-02-13T20:21:17.950Z,44.03
2023-02-13T20:23:48.742Z,38.42
2023-02-13T20:26:16.604Z,37.70
2023-02-13T20:28:44.838Z,42.03
2023-02-13T20:31:21.861Z,43.30
2023-02-13T20:33:50.026Z,38.83
2023-02-13T20:36:19.821Z,42.90
2023-02-13T20:38:47.579Z,45.17
2023-02-13T20:41:19.530Z,39.85
2023-02-13T20:43:46.548Z,40.33
2023-02-13T20:46:15.951Z,43.13
2023-02-13T20:48:44.214Z,40.47
2023-02-13T20:51:12.602Z,44.53
2023-02-13T20:53:40.184Z,42.70
2023-02-13T20:56:21.969Z,43.05
2023-02-13T20:58:51.059Z,42.17
2023-02-13T21:01:21.860Z,42.08
2023-02-13T21:03:53.716Z,39.40
2023-02-13T21:06:26.101Z,46.65
2023-02-13T21:08:52.790Z,45.33
2023-02-13T21:11:20.874Z,42.72
2023-02-13T21:13:47.895Z,38.97
2023-02-13T21:16:18.549Z,42.57
2023-02-13T21:18:48.948Z,41.97
2023-02-13T21:21:15.958Z,39.63
2023-02-13T21:23:42.457Z,38.92
2023-02-13T21:26:12.641Z,41.35
2023-02-13T21:28:40.118Z,39.03
2023-02-13T21:31:12.543Z,40.95
2023-02-13T21:33:39.075Z,42.03
2023-02-13T21:36:07.912Z,41.22
2023-02-13T21:38:38.888Z,44.17
2023-02-13T21:41:05.494Z,40.57
2023-02-13T21:43:32.094Z,39.45
2023-02-13T21:46:11.980Z,39.10
2023-02-13T21:48:39.674Z,40.63
2023-02-13T21:51:07.883Z,40.88
2023-02-13T21:53:35.017Z,37.70
2023-02-13T21:56:06.909Z,36.75
2023-02-13T21:58:37.836Z,40.67
2023-02-13T22:01:26.634Z,38.83
2023-02-13T22:04:02.397Z,39.80
2023-02-13T22:06:33.521Z,37.20
2023-02-13T22:09:02.935Z,37.65
2023-02-13T22:11:30.480Z,40.47
2023-02-13T22:14:02.760Z,41.47
2023-02-13T22:16:39.422Z,36.80
2023-02-13T22:19:08.187Z,40.77
2023-02-13T22:21:36.134Z,38.40
2023-02-13T22:24:03.086Z,37.70
2023-02-13T22:26:34.676Z,39.35
2023-02-13T22:29:08.814Z,42.72
2023-02-13T22:31:36.025Z,46.93
2023-02-13T22:34:05.397Z,41.33
2023-02-13T22:36:38.958Z,40.00
2023-02-13T22:39:06.462Z,40.10
2023-02-13T22:41:33.220Z,41.20
2023-02-13T22:43:59.769Z,39.87
2023-02-13T22:46:29.782Z,38.65
2023-02-13T22:48:56.837Z,43.50
2023-02-13T22:51:28.487Z,41.38
2023-02-13T22:53:58.963Z,42.85
2023-02-13T22:56:26.981Z,39.27
2023-02-13T22:58:54.013Z,41.38
2023-02-13T23:01:23.231Z,38.35
2023-02-13T23:03:51.009Z,39.53
2023-02-13T23:06:18.217Z,40.80
2023-02-13T23:08:44.975Z,37.47
2023-02-13T23:11:33.171Z,37.42
2023-02-13T23:13:59.974Z,41.15
2023-02-13T23:16:26.877Z,38.78
2023-02-13T23:18:57.596Z,42.05
2023-02-13T23:21:25.512Z,39.40
2023-02-13T23:23:52.314Z,42.90
2023-02-13T23:26:19.363Z,43.15
2023-02-13T23:28:45.936Z,38.55
2023-02-13T23:31:12.547Z,39.08
2023-02-13T23:33:39.076Z,40.47
2023-02-13T23:36:06.229Z,42.58
2023-02-13T23:38:32.734Z,38.33
2023-02-13T23:41:07.443Z,36.83
2023-02-13T23:43:34.237Z,36.55
2023-02-13T23:46:06.801Z,35.50
2023-02-13T23:48:33.971Z,36.55
2023-02-13T23:51:01.113Z,38.53
2023-02-13T23:53:27.923Z,36.50
2023-02-13T23:55:55.041Z,38.20
2023-02-13T23:58:21.579Z,39.57
